Time;durP1;ratioP1;P1;durP2;ratioP2;P2;SDS_P1;SDS_P2;PMS_P1;PMS_P2;Temp;Humidity;BMP_temperature;BMP_pressure;BME280_temperature;BME280_humidity;BME280_pressure;Samples;Min_cycle;Max_cycle;Signal;HPM_P1;HPM_P2
2022/05/26 00:00:22;;;;;;;21.27;5.30;;;;;;;;;;5099657;28;20024;-68
2022/05/26 00:02:47;;;;;;;22.67;5.75;;;;;;;;;;5109432;28;20012;-68
2022/05/26 00:05:13;;;;;;;24.73;5.38;;;;;;;;;;5108520;28;20034;-68
2022/05/26 00:07:38;;;;;;;24.58;5.03;;;;;;;;;;5107014;28;20015;-67
2022/05/26 00:10:04;;;;;;;19.48;6.03;;;;;;;;;;5111610;28;20076;-68
2022/05/26 00:12:32;;;;;;;26.30;5.47;;;;;;;;;;5106136;28;20050;-68
2022/05/26 00:14:57;;;;;;;26.25;6.05;;;;;;;;;;5107059;28;20020;-68
2022/05/26 00:17:22;;;;;;;27.17;5.50;;;;;;;;;;5104019;28;20035;-68
2022/05/26 00:19:48;;;;;;;35.85;6.28;;;;;;;;;;5105810;28;20027;-68
2022/05/26 00:22:14;;;;;;;25.20;6.10;;;;;;;;;;5107456;28;20023;-68
2022/05/26 00:24:41;;;;;;;25.27;5.57;;;;;;;;;;5106812;28;20028;-68
2022/05/26 00:27:06;;;;;;;32.78;6.20;;;;;;;;;;5104920;28;20107;-68
2022/05/26 00:29:34;;;;;;;17.38;5.38;;;;;;;;;;5106497;28;20091;-68
2022/05/26 00:31:59;;;;;;;16.65;5.97;;;;;;;;;;5100335;28;20065;-68
2022/05/26 00:34:24;;;;;;;16.88;6.20;;;;;;;;;;5105191;28;20377;-68
2022/05/26 00:36:49;;;;;;;24.48;5.70;;;;;;;;;;5111129;28;20047;-68
2022/05/26 00:39:20;;;;;;;20.15;5.10;;;;;;;;;;5101705;28;20069;-68
2022/05/26 00:41:47;;;;;;;19.88;4.90;;;;;;;;;;5111055;28;20479;-68
2022/05/26 00:44:13;;;;;;;26.30;5.20;;;;;;;;;;5101101;28;20024;-68
2022/05/26 00:46:44;;;;;;;22.13;4.88;;;;;;;;;;5103647;28;20028;-68
2022/05/26 00:49:13;;;;;;;23.10;5.20;;;;;;;;;;5099518;28;20039;-68
2022/05/26 00:51:39;;;;;;;28.92;5.20;;;;;;;;;;5101273;28;20024;-68
2022/05/26 00:54:08;;;;;;;23.90;5.20;;;;;;;;;;5111024;28;20023;-68
2022/05/26 00:56:43;;;;;;;27.13;5.18;;;;;;;;;;5111487;28;20032;-68
2022/05/26 00:59:14;;;;;;;25.95;5.50;;;;;;;;;;5113282;28;20023;-68
2022/05/26 01:01:39;;;;;;;17.75;5.13;;;;;;;;;;5103562;28;20035;-68
2022/05/26 01:04:07;;;;;;;20.77;5.53;;;;;;;;;;5107392;28;20008;-68
2022/05/26 01:06:38;;;;;;;28.60;5.95;;;;;;;;;;5107370;28;20417;-68
2022/05/26 01:09:05;;;;;;;18.15;5.68;;;;;;;;;;5099575;28;20028;-68
2022/05/26 01:11:31;;;;;;;17.88;4.88;;;;;;;;;;5104689;28;20067;-68
2022/05/26 01:13:59;;;;;;;26.48;5.28;;;;;;;;;;5112750;28;20027;-68
2022/05/26 01:16:40;;;;;;;22.40;6.13;;;;;;;;;;5107403;28;20023;-67
2022/05/26 01:19:08;;;;;;;22.10;5.00;;;;;;;;;;5101634;28;20363;-68
2022/05/26 01:21:38;;;;;;;25.30;5.50;;;;;;;;;;5104067;28;20034;-68
2022/05/26 01:24:12;;;;;;;28.90;5.05;;;;;;;;;;5098831;28;20035;-68
2022/05/26 01:26:43;;;;;;;17.05;5.43;;;;;;;;;;5109321;28;20030;-68
2022/05/26 01:29:14;;;;;;;20.05;5.30;;;;;;;;;;5101884;28;20042;-68
2022/05/26 01:32:02;;;;;;;24.92;5.53;;;;;;;;;;5109451;28;20024;-68
2022/05/26 01:34:48;;;;;;;20.88;6.10;;;;;;;;;;5102054;28;20482;-68
2022/05/26 01:37:32;;;;;;;22.55;5.93;;;;;;;;;;5104297;28;20596;-68
2022/05/26 01:40:00;;;;;;;23.33;5.57;;;;;;;;;;5104461;28;20028;-68
2022/05/26 01:42:29;;;;;;;32.58;5.53;;;;;;;;;;5110640;28;20028;-68
2022/05/26 01:45:13;;;;;;;19.35;4.65;;;;;;;;;;5108160;28;20111;-68
2022/05/26 01:47:50;;;;;;;22.40;5.28;;;;;;;;;;5108305;28;20024;-68
2022/05/26 01:50:22;;;;;;;20.73;5.30;;;;;;;;;;5106432;28;20042;-68
2022/05/26 01:52:56;;;;;;;17.20;4.47;;;;;;;;;;5103542;28;20051;-68
2022/05/26 01:55:25;;;;;;;21.15;5.25;;;;;;;;;;5104850;28;20040;-68
2022/05/26 01:57:54;;;;;;;14.25;4.75;;;;;;;;;;5100482;28;20081;-68
2022/05/26 02:00:20;;;;;;;23.58;5.00;;;;;;;;;;5100943;28;20027;-68
2022/05/26 02:02:52;;;;;;;21.23;4.85;;;;;;;;;;5107040;28;20020;-68
2022/05/26 02:05:21;;;;;;;17.45;4.75;;;;;;;;;;5106228;28;20055;-68
2022/05/26 02:07:56;;;;;;;24.00;5.35;;;;;;;;;;5108257;28;20024;-68
2022/05/26 02:10:33;;;;;;;19.80;5.07;;;;;;;;;;5111541;28;20059;-68
2022/05/26 02:13:05;;;;;;;16.08;4.57;;;;;;;;;;5101796;28;20028;-68
2022/05/26 02:15:34;;;;;;;20.30;4.45;;;;;;;;;;5104273;28;20030;-68
2022/05/26 02:18:05;;;;;;;16.55;5.10;;;;;;;;;;5101158;28;20616;-68
2022/05/26 02:20:53;;;;;;;19.05;4.65;;;;;;;;;;5103799;28;20028;-68
2022/05/26 02:23:26;;;;;;;16.48;4.00;;;;;;;;;;5087377;28;20036;-68
2022/05/26 02:25:52;;;;;;;22.00;4.65;;;;;;;;;;5104656;28;20028;-67
2022/05/26 02:28:17;;;;;;;20.23;4.43;;;;;;;;;;5106520;28;20076;-68
2022/05/26 02:30:43;;;;;;;16.80;5.28;;;;;;;;;;5082504;28;20422;-68
2022/05/26 02:33:10;;;;;;;24.17;4.72;;;;;;;;;;5106499;28;20027;-68
2022/05/26 02:35:37;;;;;;;19.35;4.57;;;;;;;;;;5102138;28;20040;-68
2022/05/26 02:38:16;;;;;;;20.05;4.03;;;;;;;;;;5112747;28;20055;-68
2022/05/26 02:40:42;;;;;;;18.58;4.90;;;;;;;;;;5100459;28;20430;-68
2022/05/26 02:43:10;;;;;;;13.25;4.05;;;;;;;;;;5103272;28;20024;-68
2022/05/26 02:45:44;;;;;;;22.63;5.18;;;;;;;;;;5106625;28;20151;-68
2022/05/26 02:48:09;;;;;;;;;;;;;;;;;;5103782;28;20542;-68
2022/05/26 02:50:34;;;;;;;21.67;4.03;;;;;;;;;;5106080;28;20417;-68
2022/05/26 02:53:18;;;;;;;22.17;4.13;;;;;;;;;;5108411;28;20029;-68
2022/05/26 02:56:00;;;;;;;18.23;4.65;;;;;;;;;;5108459;28;20029;-68
2022/05/26 02:58:36;;;;;;;23.88;5.30;;;;;;;;;;5101170;28;20036;-68
2022/05/26 03:01:07;;;;;;;18.42;4.65;;;;;;;;;;5105357;28;20016;-68
2022/05/26 03:03:35;;;;;;;20.15;4.70;;;;;;;;;;5109586;28;20024;-68
2022/05/26 03:06:22;;;;;;;24.15;5.10;;;;;;;;;;5106548;28;20111;-68
2022/05/26 03:08:47;;;;;;;18.63;5.25;;;;;;;;;;5106345;28;20024;-68
2022/05/26 03:11:16;;;;;;;21.00;5.68;;;;;;;;;;5111957;28;20036;-68
2022/05/26 03:13:41;;;;;;;18.48;5.35;;;;;;;;;;5103952;28;20115;-68
2022/05/26 03:16:07;;;;;;;21.02;6.47;;;;;;;;;;5101653;28;20475;-68
2022/05/26 03:18:32;;;;;;;19.10;5.15;;;;;;;;;;5102266;28;20470;-68
2022/05/26 03:20:58;;;;;;;30.90;6.43;;;;;;;;;;5106343;28;20073;-68
2022/05/26 03:23:24;;;;;;;32.20;5.10;;;;;;;;;;5103535;28;20074;-68
2022/05/26 03:25:49;;;;;;;25.48;5.93;;;;;;;;;;5099832;28;20108;-68
2022/05/26 03:28:14;;;;;;;19.48;6.03;;;;;;;;;;5104040;28;20074;-68
2022/05/26 03:30:39;;;;;;;26.38;6.22;;;;;;;;;;5106308;28;20099;-68
2022/05/26 03:33:05;;;;;;;23.13;6.55;;;;;;;;;;5108248;28;20103;-68
2022/05/26 03:40:58;;;;;;;28.23;6.35;;;;;;;;;;5097695;28;20043;-68
2022/05/26 03:43:36;;;;;;;31.95;6.88;;;;;;;;;;5105722;28;20395;-68
2022/05/26 03:46:01;;;;;;;25.80;6.72;;;;;;;;;;5095746;28;20030;-68
2022/05/26 03:48:27;;;;;;;20.50;6.20;;;;;;;;;;5104417;28;20382;-68
2022/05/26 03:50:53;;;;;;;22.27;5.40;;;;;;;;;;5110490;28;20035;-68
2022/05/26 03:53:18;;;;;;;29.48;6.82;;;;;;;;;;5101724;28;20352;-68
2022/05/26 03:55:43;;;;;;;30.63;6.25;;;;;;;;;;5098193;28;20422;-68
2022/05/26 03:58:08;;;;;;;36.17;6.40;;;;;;;;;;5103592;28;20126;-68
2022/05/26 04:00:35;;;;;;;25.50;6.45;;;;;;;;;;5105791;28;20035;-68
2022/05/26 04:03:00;;;;;;;20.67;5.50;;;;;;;;;;5106586;28;20016;-68
2022/05/26 04:05:25;;;;;;;21.73;6.10;;;;;;;;;;5101841;28;20510;-68
2022/05/26 04:07:50;;;;;;;29.45;6.72;;;;;;;;;;5111734;28;20412;-68
2022/05/26 04:10:16;;;;;;;23.65;6.15;;;;;;;;;;5109561;28;20028;-68
2022/05/26 04:12:44;;;;;;;30.67;6.85;;;;;;;;;;5111040;28;20040;-68
2022/05/26 04:15:10;;;;;;;27.40;5.65;;;;;;;;;;5105004;28;20036;-68
2022/05/26 04:17:36;;;;;;;25.13;6.20;;;;;;;;;;5103578;28;20035;-68
2022/05/26 04:20:01;;;;;;;25.15;6.57;;;;;;;;;;5107972;28;20122;-68
2022/05/26 04:22:26;;;;;;;29.40;6.88;;;;;;;;;;5109562;28;20089;-68
2022/05/26 04:24:56;;;;;;;40.47;7.45;;;;;;;;;;5111260;28;20020;-68
2022/05/26 04:27:23;;;;;;;27.48;6.20;;;;;;;;;;5115273;28;20032;-68
2022/05/26 04:29:49;;;;;;;29.10;6.70;;;;;;;;;;5108289;28;20024;-68
2022/05/26 04:32:14;;;;;;;18.08;5.30;;;;;;;;;;5106199;28;20016;-68
2022/05/26 04:34:40;;;;;;;20.45;5.32;;;;;;;;;;5104571;28;20073;-68
2022/05/26 04:37:05;;;;;;;25.38;5.63;;;;;;;;;;5107698;28;20103;-68
2022/05/26 04:39:31;;;;;;;23.02;5.93;;;;;;;;;;5104275;28;20019;-68
2022/05/26 04:42:00;;;;;;;25.27;6.60;;;;;;;;;;5112051;28;20031;-68
2022/05/26 04:44:29;;;;;;;22.20;5.15;;;;;;;;;;5097297;28;20024;-68
2022/05/26 04:46:54;;;;;;;30.40;6.13;;;;;;;;;;5110174;28;20051;-68
2022/05/26 04:49:19;;;;;;;22.75;6.25;;;;;;;;;;5103819;28;20466;-68
2022/05/26 04:51:45;;;;;;;30.83;6.75;;;;;;;;;;5103271;28;20368;-68
2022/05/26 04:54:10;;;;;;;36.40;6.25;;;;;;;;;;5104608;28;20387;-68
2022/05/26 04:56:35;;;;;;;31.95;6.45;;;;;;;;;;5108164;28;20375;-68
2022/05/26 04:59:00;;;;;;;30.50;6.43;;;;;;;;;;5106648;28;20055;-68
2022/05/26 05:01:26;;;;;;;28.98;7.07;;;;;;;;;;5101153;28;20015;-68
2022/05/26 05:03:51;;;;;;;38.45;6.60;;;;;;;;;;5109767;28;20020;-68
2022/05/26 05:06:17;;;;;;;29.38;6.82;;;;;;;;;;5106244;28;20139;-68
2022/05/26 05:08:42;;;;;;;36.72;7.85;;;;;;;;;;5111495;28;20412;-68
2022/05/26 05:11:08;;;;;;;34.22;7.57;;;;;;;;;;5112728;28;20032;-68
2022/05/26 05:13:33;;;;;;;27.80;7.05;;;;;;;;;;5110140;28;20157;-68
2022/05/26 05:16:04;;;;;;;32.35;7.07;;;;;;;;;;5106096;28;20024;-68
2022/05/26 05:18:29;;;;;;;28.55;7.13;;;;;;;;;;5110717;28;20040;-68
2022/05/26 05:20:56;;;;;;;32.53;7.40;;;;;;;;;;5108683;28;20406;-68
2022/05/26 05:23:21;;;;;;;28.77;8.35;;;;;;;;;;5107112;28;20403;-68
2022/05/26 05:25:48;;;;;;;31.75;8.38;;;;;;;;;;5105984;28;20081;-68
2022/05/26 05:28:21;;;;;;;26.45;7.32;;;;;;;;;;5109744;28;20479;-68
2022/05/26 05:30:49;;;;;;;23.97;6.13;;;;;;;;;;5102747;28;20027;-69
2022/05/26 05:33:19;;;;;;;22.13;6.18;;;;;;;;;;5105550;28;20748;-69
2022/05/26 05:35:47;;;;;;;19.35;4.63;;;;;;;;;;5106638;28;20039;-68
2022/05/26 05:38:13;;;;;;;19.85;4.78;;;;;;;;;;5104252;28;20475;-68
2022/05/26 05:40:39;;;;;;;21.13;4.10;;;;;;;;;;5110028;28;20540;-68
2022/05/26 05:43:04;;;;;;;8.70;3.45;;;;;;;;;;5100589;28;20020;-68
2022/05/26 05:45:30;;;;;;;16.15;3.80;;;;;;;;;;5107113;28;20036;-68
2022/05/26 05:47:55;;;;;;;20.40;3.95;;;;;;;;;;5106286;28;20027;-68
2022/05/26 05:50:20;;;;;;;12.10;3.25;;;;;;;;;;5104460;28;20458;-68
2022/05/26 05:52:45;;;;;;;13.10;3.55;;;;;;;;;;5103961;28;20023;-68
2022/05/26 05:55:11;;;;;;;14.57;3.45;;;;;;;;;;5111408;28;20106;-68
2022/05/26 05:57:36;;;;;;;13.90;3.45;;;;;;;;;;5104923;28;20038;-68
2022/05/26 06:00:01;;;;;;;10.10;3.28;;;;;;;;;;5111940;28;20064;-69
2022/05/26 06:02:27;;;;;;;13.35;3.50;;;;;;;;;;5109157;28;20027;-68
2022/05/26 06:04:52;;;;;;;12.85;3.50;;;;;;;;;;5114357;28;20068;-69
2022/05/26 06:07:19;;;;;;;12.18;3.05;;;;;;;;;;5106950;28;20093;-68
2022/05/26 06:09:45;;;;;;;13.02;2.67;;;;;;;;;;5102341;28;20483;-68
2022/05/26 06:12:10;;;;;;;13.68;3.00;;;;;;;;;;5107029;28;20086;-68
2022/05/26 06:14:36;;;;;;;14.07;3.22;;;;;;;;;;5104176;28;20032;-68
2022/05/26 06:17:01;;;;;;;8.43;3.00;;;;;;;;;;5109154;28;20036;-68
2022/05/26 06:19:26;;;;;;;13.15;2.97;;;;;;;;;;5105788;28;20019;-68
2022/05/26 06:21:52;;;;;;;11.10;3.00;;;;;;;;;;5111174;28;20028;-68
2022/05/26 06:24:22;;;;;;;13.57;2.88;;;;;;;;;;5099552;28;20041;-68
2022/05/26 06:26:48;;;;;;;8.60;3.03;;;;;;;;;;5100503;28;20022;-68
2022/05/26 06:37:28;;;;;;;;;;;;;;;;;;5106947;28;20059;-68
2022/05/26 06:39:53;;;;;;;7.82;3.60;;;;;;;;;;5111981;28;19904;-68
2022/05/26 06:42:18;;;;;;;12.07;2.75;;;;;;;;;;5101754;28;20043;-68
2022/05/26 06:44:44;;;;;;;12.85;3.10;;;;;;;;;;5105732;28;20020;-68
2022/05/26 06:47:15;;;;;;;13.75;2.67;;;;;;;;;;5102614;28;20016;-68
2022/05/26 06:49:41;;;;;;;10.38;2.70;;;;;;;;;;5107874;28;20080;-68
2022/05/26 06:52:07;;;;;;;14.15;2.70;;;;;;;;;;5101789;28;20430;-68
2022/05/26 06:54:33;;;;;;;6.70;1.77;;;;;;;;;;5111856;28;20516;-69
2022/05/26 06:56:59;;;;;;;10.57;2.20;;;;;;;;;;5098633;28;20073;-69
2022/05/26 06:59:24;;;;;;;9.68;1.85;;;;;;;;;;5102193;28;20023;-69
2022/05/26 07:01:50;;;;;;;7.30;1.70;;;;;;;;;;5108098;28;20023;-68
2022/05/26 07:04:15;;;;;;;8.25;2.45;;;;;;;;;;5112586;28;20036;-68
2022/05/26 07:06:40;;;;;;;8.55;1.60;;;;;;;;;;5106866;28;20016;-68
2022/05/26 07:09:06;;;;;;;8.32;1.58;;;;;;;;;;5106749;28;20020;-68
2022/05/26 07:11:32;;;;;;;7.80;1.38;;;;;;;;;;5104744;28;20036;-68
2022/05/26 07:13:57;;;;;;;7.88;1.65;;;;;;;;;;5113095;28;20098;-68
2022/05/26 07:16:23;;;;;;;6.50;1.60;;;;;;;;;;5113486;28;20441;-68
2022/05/26 07:18:50;;;;;;;6.22;1.42;;;;;;;;;;5113249;28;20566;-68
2022/05/26 07:21:16;;;;;;;8.90;1.50;;;;;;;;;;5106071;28;20028;-68
2022/05/26 07:23:41;;;;;;;8.43;1.50;;;;;;;;;;5103658;28;20340;-68
2022/05/26 07:26:08;;;;;;;8.02;1.40;;;;;;;;;;5110788;28;20034;-68
2022/05/26 07:28:34;;;;;;;9.27;1.60;;;;;;;;;;5098776;28;20068;-68
2022/05/26 07:30:59;;;;;;;10.05;1.58;;;;;;;;;;5103404;28;20047;-68
2022/05/26 07:33:24;;;;;;;6.97;1.45;;;;;;;;;;5095196;28;20120;-68
2022/05/26 07:35:49;;;;;;;5.18;1.35;;;;;;;;;;5115716;28;20097;-68
2022/05/26 07:41:17;;;;;;;9.10;1.67;;;;;;;;;;5112699;28;20058;-68
2022/05/26 07:43:44;;;;;;;8.93;1.55;;;;;;;;;;5104417;28;20487;-68
2022/05/26 07:46:10;;;;;;;6.82;1.88;;;;;;;;;;5114696;28;20031;-68
2022/05/26 07:48:36;;;;;;;8.15;1.63;;;;;;;;;;5109377;28;20430;-68
2022/05/26 07:51:01;;;;;;;9.63;1.80;;;;;;;;;;5116619;28;20046;-68
2022/05/26 07:53:26;;;;;;;5.68;1.63;;;;;;;;;;5116938;28;20032;-68
2022/05/26 07:55:51;;;;;;;8.55;1.45;;;;;;;;;;5107274;28;20019;-68
2022/05/26 07:58:17;;;;;;;8.40;1.98;;;;;;;;;;5111847;28;20378;-68
2022/05/26 08:00:42;;;;;;;10.63;2.00;;;;;;;;;;5087298;28;20032;-68
2022/05/26 08:03:07;;;;;;;12.07;2.20;;;;;;;;;;5099151;28;20020;-68
2022/05/26 08:05:33;;;;;;;10.85;2.90;;;;;;;;;;5111922;28;20020;-68
2022/05/26 08:07:58;;;;;;;10.60;3.00;;;;;;;;;;5112533;28;20023;-68
2022/05/26 08:10:23;;;;;;;9.68;2.72;;;;;;;;;;5113442;28;20023;-68
2022/05/26 08:12:49;;;;;;;10.93;2.72;;;;;;;;;;5110203;28;20284;-68
2022/05/26 08:15:14;;;;;;;11.07;2.65;;;;;;;;;;5103675;28;20031;-68
2022/05/26 08:17:39;;;;;;;8.77;2.75;;;;;;;;;;5105077;28;20535;-68
2022/05/26 08:20:05;;;;;;;5.95;2.63;;;;;;;;;;5112401;28;20026;-69
2022/05/26 08:22:30;;;;;;;9.18;3.20;;;;;;;;;;5106276;28;20032;-68
2022/05/26 08:24:57;;;;;;;9.20;2.90;;;;;;;;;;5112678;28;20066;-68
2022/05/26 08:27:22;;;;;;;11.75;2.97;;;;;;;;;;5099401;28;20044;-68
2022/05/26 08:29:48;;;;;;;7.80;2.53;;;;;;;;;;5090277;28;20082;-68
2022/05/26 08:32:16;;;;;;;8.95;2.28;;;;;;;;;;5100009;28;20028;-68
2022/05/26 08:34:42;;;;;;;8.10;2.33;;;;;;;;;;5098915;28;20361;-69
2022/05/26 08:37:14;;;;;;;8.45;2.60;;;;;;;;;;5111269;28;20046;-68
2022/05/26 08:39:39;;;;;;;6.25;2.58;;;;;;;;;;5104305;28;20016;-69
2022/05/26 08:42:05;;;;;;;11.73;3.03;;;;;;;;;;5112336;28;20026;-68
2022/05/26 08:44:32;;;;;;;8.32;2.63;;;;;;;;;;5107524;28;20067;-68
2022/05/26 08:47:01;;;;;;;7.90;2.88;;;;;;;;;;5106129;28;20057;-68
2022/05/26 08:49:42;;;;;;;8.00;2.97;;;;;;;;;;5100003;28;20020;-68
2022/05/26 08:52:10;;;;;;;7.60;2.70;;;;;;;;;;5097217;28;20039;-69
2022/05/26 08:54:44;;;;;;;7.22;3.00;;;;;;;;;;5109443;28;20050;-68
2022/05/26 08:57:12;;;;;;;7.85;2.53;;;;;;;;;;5110259;28;20032;-68
2022/05/26 08:59:44;;;;;;;7.63;2.20;;;;;;;;;;5110444;28;20519;-68
2022/05/26 09:02:23;;;;;;;14.10;2.35;;;;;;;;;;5110914;28;20028;-69
2022/05/26 09:04:48;;;;;;;9.55;2.83;;;;;;;;;;5093273;28;20028;-68
2022/05/26 09:12:56;;;;;;;14.40;3.42;;;;;;;;;;5093058;28;20089;-68
2022/05/26 09:15:21;;;;;;;12.88;3.10;;;;;;;;;;5104822;28;20019;-68
2022/05/26 09:17:46;;;;;;;9.82;2.85;;;;;;;;;;5095525;28;20098;-69
2022/05/26 09:20:27;;;;;;;9.73;2.90;;;;;;;;;;5110188;28;20023;-69
2022/05/26 09:22:52;;;;;;;9.02;2.50;;;;;;;;;;5110595;28;20111;-68
2022/05/26 09:25:34;;;;;;;12.00;2.63;;;;;;;;;;5109624;28;20110;-69
2022/05/26 09:27:59;;;;;;;7.15;2.65;;;;;;;;;;5111822;28;20080;-68
2022/05/26 09:30:27;;;;;;;8.32;2.70;;;;;;;;;;5110449;28;20035;-69
2022/05/26 09:32:53;;;;;;;9.30;3.00;;;;;;;;;;5111004;28;20016;-69
2022/05/26 09:35:18;;;;;;;11.43;2.90;;;;;;;;;;5110830;28;20088;-68
2022/05/26 09:37:46;;;;;;;8.17;2.60;;;;;;;;;;5110853;28;20043;-68
2022/05/26 09:40:13;;;;;;;15.77;3.35;;;;;;;;;;5110291;28;20236;-69
2022/05/26 09:42:40;;;;;;;11.55;3.13;;;;;;;;;;5110705;28;20058;-68
2022/05/26 09:45:12;;;;;;;14.40;3.97;;;;;;;;;;5099917;28;20032;-68
2022/05/26 09:47:38;;;;;;;10.75;3.30;;;;;;;;;;5104321;28;20088;-69
2022/05/26 09:50:08;;;;;;;13.38;3.30;;;;;;;;;;5108450;28;20147;-68
2022/05/26 09:52:42;;;;;;;10.90;2.95;;;;;;;;;;5109469;28;20032;-68
2022/05/26 09:55:21;;;;;;;9.63;3.15;;;;;;;;;;5101184;28;20051;-69
2022/05/26 09:57:47;;;;;;;9.80;3.05;;;;;;;;;;5107714;28;20426;-69
2022/05/26 10:00:15;;;;;;;6.75;2.70;;;;;;;;;;5096657;28;20100;-69
2022/05/26 10:02:40;;;;;;;10.90;3.42;;;;;;;;;;5097643;28;20048;-69
2022/05/26 10:05:16;;;;;;;13.80;3.67;;;;;;;;;;5109792;28;20027;-69
2022/05/26 10:07:41;;;;;;;12.90;3.22;;;;;;;;;;5099240;28;20024;-69
2022/05/26 10:10:22;;;;;;;11.80;3.30;;;;;;;;;;5110967;28;20092;-69
2022/05/26 10:13:06;;;;;;;7.88;2.70;;;;;;;;;;5096648;28;20088;-69
2022/05/26 10:15:31;;;;;;;9.02;3.30;;;;;;;;;;5110854;28;20455;-68
2022/05/26 10:18:00;;;;;;;9.00;3.40;;;;;;;;;;5111026;28;20056;-68
2022/05/26 10:20:54;;;;;;;11.43;3.05;;;;;;;;;;5106166;28;20076;-68
2022/05/26 10:23:26;;;;;;;11.77;3.30;;;;;;;;;;5029249;28;20038;-68
2022/05/26 10:26:07;;;;;;;11.45;3.20;;;;;;;;;;5103264;28;20038;-68
2022/05/26 10:28:51;;;;;;;9.30;3.50;;;;;;;;;;5103822;28;20383;-68
2022/05/26 10:31:23;;;;;;;12.15;3.58;;;;;;;;;;5109973;28;20114;-69
2022/05/26 10:34:12;;;;;;;10.60;3.47;;;;;;;;;;5109483;28;20059;-68
2022/05/26 10:36:56;;;;;;;12.25;3.45;;;;;;;;;;5062626;28;20060;-69
2022/05/26 10:39:27;;;;;;;9.93;3.40;;;;;;;;;;5104368;28;20429;-68
2022/05/26 10:41:55;;;;;;;11.23;3.97;;;;;;;;;;5098393;28;20065;-69
2022/05/26 10:44:29;;;;;;;10.27;4.07;;;;;;;;;;5095835;28;20034;-69
2022/05/26 10:46:59;;;;;;;9.57;3.53;;;;;;;;;;5092068;28;20055;-68
2022/05/26 10:49:37;;;;;;;13.25;4.22;;;;;;;;;;5103700;28;20038;-69
2022/05/26 10:52:07;;;;;;;7.50;3.38;;;;;;;;;;5100571;28;20027;-68
2022/05/26 10:54:38;;;;;;;8.07;3.80;;;;;;;;;;5096702;28;20039;-69
2022/05/26 10:57:10;;;;;;;7.38;3.30;;;;;;;;;;5098274;28;20052;-69
2022/05/26 10:59:54;;;;;;;11.07;3.15;;;;;;;;;;5098324;28;20038;-68
2022/05/26 11:02:19;;;;;;;;;;;;;;;;;;5102869;28;20032;-68
2022/05/26 11:04:50;;;;;;;10.15;3.45;;;;;;;;;;5103321;28;19903;-68
2022/05/26 11:07:19;;;;;;;9.70;3.88;;;;;;;;;;5109393;28;20043;-69
2022/05/26 11:10:03;;;;;;;10.50;3.90;;;;;;;;;;5103836;28;20106;-68
2022/05/26 11:12:37;;;;;;;12.25;3.55;;;;;;;;;;5105206;28;20068;-69
2022/05/26 11:18:11;;;;;;;8.23;3.90;;;;;;;;;;5111420;28;20077;-68
2022/05/26 11:20:40;;;;;;;11.23;4.22;;;;;;;;;;5106782;28;20110;-68
2022/05/26 11:23:07;;;;;;;16.27;4.38;;;;;;;;;;5109175;28;20024;-69
2022/05/26 11:25:35;;;;;;;13.60;4.68;;;;;;;;;;5113248;28;20031;-68
2022/05/26 11:28:27;;;;;;;13.55;6.05;;;;;;;;;;5113381;28;20106;-68
2022/05/26 11:36:48;;;;;;;16.55;4.78;;;;;;;;;;5105248;28;20117;-69
2022/05/26 11:39:18;;;;;;;27.90;5.43;;;;;;;;;;5112102;28;20489;-69
2022/05/26 11:41:58;;;;;;;16.05;4.20;;;;;;;;;;5112816;28;20451;-68
2022/05/26 11:44:42;;;;;;;12.85;4.47;;;;;;;;;;5107198;28;20026;-68
2022/05/26 11:47:12;;;;;;;15.85;4.85;;;;;;;;;;5100243;28;20118;-69
2022/05/26 11:49:43;;;;;;;15.00;4.97;;;;;;;;;;5112684;28;20024;-68
2022/05/26 11:52:24;;;;;;;12.10;4.53;;;;;;;;;;5109085;28;20057;-68
2022/05/26 11:54:52;;;;;;;12.13;3.80;;;;;;;;;;5112368;28;20027;-68
2022/05/26 11:57:38;;;;;;;11.02;3.22;;;;;;;;;;5112477;28;20067;-68
2022/05/26 12:00:24;;;;;;;14.77;3.30;;;;;;;;;;5102344;28;20081;-70
2022/05/26 12:02:53;;;;;;;10.70;3.05;;;;;;;;;;5083782;28;20039;-68
2022/05/26 12:05:30;;;;;;;14.35;3.47;;;;;;;;;;5112419;28;20118;-68
2022/05/26 12:08:04;;;;;;;15.45;3.70;;;;;;;;;;5100342;28;20054;-68
2022/05/26 12:10:36;;;;;;;17.42;4.20;;;;;;;;;;5112290;28;20082;-68
2022/05/26 12:13:20;;;;;;;15.48;4.35;;;;;;;;;;5079058;28;20612;-68
2022/05/26 12:15:45;;;;;;;;;;;;;;;;;;5107261;28;20028;-68
2022/05/26 12:18:18;;;;;;;11.73;3.03;;;;;;;;;;5105246;28;19915;-69
2022/05/26 12:20:43;;;;;;;12.97;4.47;;;;;;;;;;5111687;28;20055;-69
2022/05/26 12:23:15;;;;;;;12.50;4.18;;;;;;;;;;5112763;28;20109;-69
2022/05/26 12:25:40;;;;;;;14.63;4.15;;;;;;;;;;5105291;28;20114;-69
2022/05/26 12:28:14;;;;;;;14.18;4.35;;;;;;;;;;5107456;28;20541;-68
2022/05/26 12:30:40;;;;;;;15.55;4.05;;;;;;;;;;5099920;28;20116;-69
2022/05/26 12:33:14;;;;;;;12.15;3.97;;;;;;;;;;5105834;28;20453;-68
2022/05/26 12:35:48;;;;;;;12.75;4.10;;;;;;;;;;5099904;28;20052;-68
2022/05/26 12:38:13;;;;;;;;;;;;;;;;;;5112723;28;20539;-69
2022/05/26 12:40:41;;;;;;;9.38;3.45;;;;;;;;;;5111175;28;20312;-68
2022/05/26 12:43:14;;;;;;;15.48;3.40;;;;;;;;;;5111528;28;20093;-68
2022/05/26 12:45:45;;;;;;;12.80;3.38;;;;;;;;;;5111853;28;20497;-68
2022/05/26 12:48:18;;;;;;;12.98;3.42;;;;;;;;;;5112561;28;20081;-68
2022/05/26 12:50:43;;;;;;;6.45;2.67;;;;;;;;;;5105889;28;20090;-69
2022/05/26 12:53:15;;;;;;;13.82;3.22;;;;;;;;;;5109889;28;20122;-68
2022/05/26 12:55:53;;;;;;;13.43;3.40;;;;;;;;;;5111534;28;20019;-69
2022/05/26 12:58:18;;;;;;;11.82;3.20;;;;;;;;;;5112396;28;20120;-69
2022/05/26 13:00:47;;;;;;;10.73;3.47;;;;;;;;;;5100728;28;20166;-68
2022/05/26 13:03:13;;;;;;;11.07;2.95;;;;;;;;;;5111339;28;20031;-69
2022/05/26 13:05:42;;;;;;;9.70;2.43;;;;;;;;;;5108100;28;20028;-68
2022/05/26 13:08:16;;;;;;;15.38;2.80;;;;;;;;;;5109703;28;20304;-68
2022/05/26 13:10:42;;;;;;;12.63;2.92;;;;;;;;;;5097925;28;20469;-69
2022/05/26 13:13:19;;;;;;;9.82;2.20;;;;;;;;;;5111533;28;20483;-68
2022/05/26 13:15:46;;;;;;;16.70;2.65;;;;;;;;;;5107640;28;20020;-68
2022/05/26 13:18:19;;;;;;;12.55;2.95;;;;;;;;;;5111096;28;20035;-69
2022/05/26 13:20:44;;;;;;;11.20;3.20;;;;;;;;;;5110900;28;20793;-68
2022/05/26 13:23:09;;;;;;;13.00;2.95;;;;;;;;;;5110273;28;20116;-68
2022/05/26 13:25:35;;;;;;;10.63;2.72;;;;;;;;;;5103756;28;20016;-69
2022/05/26 13:28:05;;;;;;;13.07;3.10;;;;;;;;;;5104039;28;20028;-68
2022/05/26 13:33:23;;;;;;;15.63;2.80;;;;;;;;;;5089557;28;20047;-69
2022/05/26 13:35:58;;;;;;;18.50;3.20;;;;;;;;;;5097862;28;20055;-69
2022/05/26 13:38:28;;;;;;;16.88;3.53;;;;;;;;;;5085960;28;20036;-69
2022/05/26 13:40:53;;;;;;;20.92;5.75;;;;;;;;;;5109505;28;20023;-68
2022/05/26 13:43:19;;;;;;;13.57;3.13;;;;;;;;;;5100327;28;20020;-69
2022/05/26 13:45:45;;;;;;;16.48;3.28;;;;;;;;;;5104886;28;20482;-68
2022/05/26 13:48:30;;;;;;;13.75;3.65;;;;;;;;;;5091631;28;20032;-69
2022/05/26 13:51:05;;;;;;;10.00;2.85;;;;;;;;;;5105074;28;20149;-68
2022/05/26 13:53:32;;;;;;;12.23;3.25;;;;;;;;;;5092764;28;20114;-68
2022/05/26 13:56:03;;;;;;;15.77;3.38;;;;;;;;;;5099804;28;20035;-69
2022/05/26 13:58:29;;;;;;;13.15;3.05;;;;;;;;;;5103407;28;20089;-68
2022/05/26 14:00:59;;;;;;;17.05;3.30;;;;;;;;;;5097984;28;21574;-68
2022/05/26 14:03:26;;;;;;;10.90;4.10;;;;;;;;;;5101701;28;20417;-69
2022/05/26 14:06:03;;;;;;;11.15;2.90;;;;;;;;;;5103046;28;20027;-69
2022/05/26 14:08:29;;;;;;;10.85;2.72;;;;;;;;;;5100035;28;20032;-68
2022/05/26 14:10:55;;;;;;;13.55;2.58;;;;;;;;;;5110449;28;20031;-69
2022/05/26 14:13:20;;;;;;;8.60;2.35;;;;;;;;;;5108408;28;20375;-69
2022/05/26 14:16:04;;;;;;;9.30;2.35;;;;;;;;;;5110013;28;20035;-68
2022/05/26 14:18:35;;;;;;;14.23;2.75;;;;;;;;;;5090779;28;20079;-69
2022/05/26 14:21:04;;;;;;;10.60;1.90;;;;;;;;;;5109537;28;20054;-68
2022/05/26 14:23:30;;;;;;;13.73;2.50;;;;;;;;;;5109705;28;20035;-68
2022/05/26 14:26:00;;;;;;;12.88;2.80;;;;;;;;;;5109292;28;20008;-69
2022/05/26 14:28:30;;;;;;;15.52;2.30;;;;;;;;;;5110348;28;20031;-69
2022/05/26 14:30:55;;;;;;;10.38;2.92;;;;;;;;;;5110596;28;20028;-68
2022/05/26 14:33:22;;;;;;;7.60;2.10;;;;;;;;;;5109988;28;20099;-68
2022/05/26 14:35:48;;;;;;;11.65;2.30;;;;;;;;;;5109473;28;20048;-68
2022/05/26 14:38:14;;;;;;;9.35;2.30;;;;;;;;;;5109037;28;20047;-69
2022/05/26 14:40:39;;;;;;;9.65;2.10;;;;;;;;;;5095118;28;20019;-68
2022/05/26 14:43:05;;;;;;;5.55;1.80;;;;;;;;;;5108990;28;20020;-69
2022/05/26 14:45:30;;;;;;;15.05;2.70;;;;;;;;;;5097041;28;20032;-68
2022/05/26 14:47:58;;;;;;;9.65;2.95;;;;;;;;;;5101776;28;20043;-69
2022/05/26 14:50:23;;;;;;;11.13;2.40;;;;;;;;;;5109805;28;20023;-69
2022/05/26 14:52:49;;;;;;;9.05;2.40;;;;;;;;;;5098472;28;20027;-68
2022/05/26 14:55:27;;;;;;;9.05;2.38;;;;;;;;;;5100453;28;20069;-69
2022/05/26 14:57:53;;;;;;;11.50;2.78;;;;;;;;;;5100775;28;20040;-68
2022/05/26 15:00:21;;;;;;;8.52;2.70;;;;;;;;;;5082634;28;20063;-69
2022/05/26 15:02:46;;;;;;;10.48;3.08;;;;;;;;;;5096915;28;20027;-69
2022/05/26 15:05:11;;;;;;;10.55;2.63;;;;;;;;;;5108011;28;20064;-68
2022/05/26 15:07:38;;;;;;;12.48;3.13;;;;;;;;;;5102779;28;20031;-69
2022/05/26 15:10:04;;;;;;;7.97;2.30;;;;;;;;;;5108290;28;20547;-69
2022/05/26 15:12:29;;;;;;;15.07;2.72;;;;;;;;;;5104154;28;20020;-69
2022/05/26 15:14:54;;;;;;;13.93;2.90;;;;;;;;;;5105429;28;20042;-68
2022/05/26 15:17:21;;;;;;;15.05;3.70;;;;;;;;;;5103452;28;20067;-69